createdAt,value
2023-05-16T00:01:35.932Z,90.24
2023-05-16T00:04:08.983Z,90.34
2023-05-16T00:06:42.167Z,90.67
2023-05-16T00:09:14.999Z,90.82
2023-05-16T00:11:48.643Z,90.94
2023-05-16T00:14:22.106Z,90.95
2023-05-16T00:16:57.550Z,90.98
2023-05-16T00:19:30.782Z,91.10
2023-05-16T00:22:03.591Z,91.35
2023-05-16T00:24:37.051Z,91.71
2023-05-16T00:27:10.309Z,92.15
2023-05-16T00:29:43.090Z,92.54
2023-05-16T00:32:15.873Z,92.92
2023-05-16T00:34:48.776Z,93.21
2023-05-16T00:37:22.720Z,93.40
2023-05-16T00:39:55.582Z,93.51
2023-05-16T00:42:28.456Z,93.60
2023-05-16T00:45:02.986Z,93.56
2023-05-16T00:47:36.687Z,93.43
2023-05-16T00:50:09.984Z,93.43
2023-05-16T00:52:43.015Z,93.50
2023-05-16T00:55:15.759Z,93.48
2023-05-16T00:57:48.997Z,93.54
2023-05-16T01:00:22.275Z,93.54
2023-05-16T01:02:55.395Z,93.60
2023-05-16T01:05:28.754Z,93.82
2023-05-16T01:08:01.702Z,93.91
2023-05-16T01:10:42.196Z,93.82
2023-05-16T01:13:51.328Z,93.63
2023-05-16T01:16:47.366Z,93.58
2023-05-16T01:19:52.746Z,93.43
2023-05-16T01:22:57.984Z,93.48
2023-05-16T01:25:58.547Z,93.82
2023-05-16T01:28:32.375Z,93.81
2023-05-16T01:31:05.300Z,93.56
2023-05-16T01:33:38.269Z,93.37
2023-05-16T01:36:27.247Z,93.27
2023-05-16T01:39:22.455Z,93.12
2023-05-16T01:42:09.242Z,93.08
2023-05-16T01:44:46.756Z,93.01
2023-05-16T01:47:21.933Z,93.08
2023-05-16T01:50:18.111Z,92.94
2023-05-16T01:53:01.553Z,92.90
2023-05-16T01:55:50.963Z,92.68
2023-05-16T01:58:26.794Z,92.44
2023-05-16T02:01:07.575Z,92.38
2023-05-16T02:03:42.139Z,92.31
2023-05-16T02:06:15.067Z,92.25
2023-05-16T02:08:47.979Z,92.45
2023-05-16T02:11:23.557Z,92.42
2023-05-16T02:13:57.257Z,92.30
2023-05-16T02:16:32.641Z,92.21
2023-05-16T02:19:05.760Z,92.05
2023-05-16T02:21:39.059Z,92.04
2023-05-16T02:24:11.998Z,92.00
2023-05-16T02:26:44.788Z,92.06
2023-05-16T02:29:17.644Z,92.06
2023-05-16T02:31:50.785Z,91.87
2023-05-16T02:34:23.616Z,91.71
2023-05-16T02:36:56.467Z,91.81
2023-05-16T02:39:30.314Z,91.83
2023-05-16T02:42:03.273Z,91.70
2023-05-16T02:44:36.345Z,91.43
2023-05-16T02:47:09.102Z,91.16
2023-05-16T02:49:42.109Z,90.76
2023-05-16T02:52:14.898Z,90.55
2023-05-16T02:54:59.879Z,90.52
2023-05-16T02:57:22.328Z,90.46
2023-05-16T02:59:55.108Z,90.41
2023-05-16T03:02:28.118Z,90.49
2023-05-16T03:05:00.908Z,90.60
2023-05-16T03:07:34.452Z,90.59
2023-05-16T03:10:10.317Z,90.32
2023-05-16T03:12:44.370Z,90.14
2023-05-16T03:15:18.214Z,89.76
2023-05-16T03:17:51.328Z,89.52
2023-05-16T03:20:23.984Z,89.39
2023-05-16T03:22:56.779Z,89.33
2023-05-16T03:25:29.754Z,89.53
2023-05-16T03:28:03.542Z,89.63
2023-05-16T03:30:37.165Z,89.16
2023-05-16T03:33:10.240Z,88.85
2023-05-16T03:35:43.309Z,87.90
2023-05-16T03:38:17.350Z,87.34
2023-05-16T03:40:50.226Z,86.75
2023-05-16T03:43:23.615Z,86.57
2023-05-16T03:45:56.584Z,86.55
2023-05-16T03:48:29.971Z,86.20
2023-05-16T03:51:02.851Z,86.19
2023-05-16T03:53:35.897Z,86.43
2023-05-16T03:56:08.833Z,86.39
2023-05-16T03:58:41.797Z,86.94
2023-05-16T04:01:14.595Z,86.94
2023-05-16T04:03:47.454Z,87.46
2023-05-16T04:06:20.298Z,87.61
2023-05-16T04:08:52.973Z,87.80
2023-05-16T04:11:27.109Z,88.22
2023-05-16T04:14:02.115Z,87.89
2023-05-16T04:16:35.091Z,87.26
2023-05-16T04:19:08.351Z,87.04
2023-05-16T04:21:42.191Z,85.95
2023-05-16T04:24:15.269Z,85.21
2023-05-16T04:26:48.104Z,84.52
2023-05-16T04:29:21.705Z,83.87
2023-05-16T04:31:54.732Z,83.29
2023-05-16T04:34:28.194Z,83.16
2023-05-16T04:37:01.310Z,83.15
2023-05-16T04:39:34.819Z,83.30
2023-05-16T04:42:08.380Z,84.06
2023-05-16T04:44:42.612Z,84.63
2023-05-16T04:47:16.152Z,84.50
2023-05-16T04:49:49.045Z,84.56
2023-05-16T04:52:22.093Z,85.05
2023-05-16T04:54:54.900Z,84.72
2023-05-16T04:57:28.522Z,84.85
2023-05-16T05:00:01.255Z,84.65
2023-05-16T05:02:34.570Z,84.65
2023-05-16T05:05:09.624Z,84.06
2023-05-16T05:07:43.570Z,82.94
2023-05-16T05:10:16.809Z,82.11
2023-05-16T05:12:49.920Z,81.86
2023-05-16T05:15:23.265Z,81.79
2023-05-16T05:17:56.550Z,81.02
2023-05-16T05:20:30.264Z,80.61
2023-05-16T05:23:03.326Z,79.83
2023-05-16T05:25:38.178Z,80.39
2023-05-16T05:28:11.052Z,79.31
2023-05-16T05:30:44.172Z,78.72
2023-05-16T05:33:19.694Z,78.24
2023-05-16T05:35:54.392Z,77.61
2023-05-16T05:38:27.366Z,77.17
2023-05-16T05:41:00.174Z,76.38
2023-05-16T05:43:33.380Z,75.19
2023-05-16T05:46:06.990Z,74.79
2023-05-16T05:48:39.887Z,74.59
2023-05-16T05:51:14.554Z,74.36
2023-05-16T05:53:47.652Z,73.97
2023-05-16T05:56:21.641Z,73.33
2023-05-16T05:58:54.351Z,72.36
2023-05-16T06:01:27.608Z,71.80
2023-05-16T06:04:02.038Z,71.43
2023-05-16T06:06:34.958Z,70.93
2023-05-16T06:09:07.733Z,70.00
2023-05-16T06:11:41.334Z,70.06
2023-05-16T06:14:16.547Z,68.79
2023-05-16T06:16:49.315Z,66.93
2023-05-16T06:19:22.253Z,66.29
2023-05-16T06:21:55.391Z,64.91
2023-05-16T06:24:30.134Z,62.06
2023-05-16T06:27:02.889Z,60.39
2023-05-16T06:29:35.853Z,59.03
2023-05-16T06:32:11.666Z,59.06
2023-05-16T06:34:43.901Z,58.42
2023-05-16T06:37:17.361Z,57.78
2023-05-16T06:39:50.304Z,56.67
2023-05-16T06:42:23.549Z,56.01
2023-05-16T06:44:56.263Z,53.73
2023-05-16T06:47:29.090Z,53.95
2023-05-16T06:50:02.071Z,53.64
2023-05-16T06:52:35.300Z,54.37
2023-05-16T06:55:08.719Z,54.37
2023-05-16T06:57:41.782Z,54.19
2023-05-16T07:00:15.739Z,55.31
2023-05-16T07:02:47.962Z,55.07
2023-05-16T07:05:20.925Z,54.98
2023-05-16T07:07:55.126Z,54.71
2023-05-16T07:10:27.968Z,53.60
2023-05-16T07:13:01.855Z,53.47
2023-05-16T07:15:34.435Z,52.25
2023-05-16T07:18:07.149Z,52.55
2023-05-16T07:20:40.042Z,51.95
2023-05-16T07:23:13.053Z,50.29
2023-05-16T07:25:45.894Z,49.45
2023-05-16T07:28:19.082Z,49.31
2023-05-16T07:30:51.973Z,49.93
2023-05-16T07:33:25.233Z,49.68
2023-05-16T07:36:12.052Z,49.11
2023-05-16T07:38:32.935Z,49.55
2023-05-16T07:41:06.636Z,49.16
2023-05-16T07:43:39.923Z,48.41
2023-05-16T07:46:14.551Z,47.45
2023-05-16T07:48:47.520Z,46.26
2023-05-16T07:51:20.503Z,44.39
2023-05-16T07:53:53.324Z,44.14
2023-05-16T07:56:26.382Z,45.21
2023-05-16T07:58:59.395Z,45.32
2023-05-16T08:01:32.544Z,45.06
2023-05-16T08:04:05.869Z,44.73
2023-05-16T08:06:38.726Z,45.14
2023-05-16T08:09:11.811Z,46.04
2023-05-16T08:11:47.866Z,46.65
2023-05-16T08:14:20.989Z,46.44
2023-05-16T08:16:54.098Z,45.31
2023-05-16T08:19:27.073Z,45.51
2023-05-16T08:22:00.387Z,45.46
2023-05-16T08:24:33.626Z,44.86
2023-05-16T08:27:06.792Z,44.32
2023-05-16T08:29:39.844Z,44.58
2023-05-16T08:32:13.037Z,42.71
2023-05-16T08:34:45.947Z,42.14
2023-05-16T08:37:18.750Z,42.71
2023-05-16T08:39:51.719Z,42.13
2023-05-16T08:42:24.981Z,42.24
2023-05-16T08:44:58.041Z,41.38
2023-05-16T08:47:34.413Z,41.56
2023-05-16T08:50:09.635Z,41.53
2023-05-16T08:52:45.492Z,41.42
2023-05-16T08:55:20.858Z,41.33
2023-05-16T08:57:54.111Z,41.32
2023-05-16T09:00:27.716Z,40.87
2023-05-16T09:03:00.887Z,40.87
2023-05-16T09:05:34.063Z,39.75
2023-05-16T09:08:07.039Z,39.62
2023-05-16T09:10:39.948Z,39.19
2023-05-16T09:13:13.479Z,39.21
2023-05-16T09:15:46.819Z,39.11
2023-05-16T09:18:19.710Z,38.92
2023-05-16T09:20:53.974Z,39.12
2023-05-16T09:23:26.110Z,37.94
2023-05-16T09:26:00.822Z,38.09
2023-05-16T09:28:34.024Z,37.50
2023-05-16T09:31:27.076Z,37.42
2023-05-16T09:34:00.471Z,37.20
2023-05-16T09:36:34.886Z,36.82
2023-05-16T09:39:09.790Z,36.06
2023-05-16T09:41:42.830Z,36.20
2023-05-16T09:44:15.926Z,36.63
2023-05-16T09:46:49.150Z,36.35
2023-05-16T09:49:22.719Z,35.88
2023-05-16T09:51:55.506Z,35.61
2023-05-16T09:54:36.170Z,37.55
2023-05-16T09:57:09.487Z,37.55
2023-05-16T09:59:43.095Z,36.38
2023-05-16T10:02:16.616Z,35.90
2023-05-16T10:04:49.804Z,36.03
2023-05-16T10:07:24.185Z,36.09
2023-05-16T10:09:58.058Z,36.28
2023-05-16T10:12:33.051Z,36.63
2023-05-16T10:15:08.134Z,37.36
2023-05-16T10:17:46.089Z,37.34
2023-05-16T10:20:19.469Z,37.40
2023-05-16T10:22:54.759Z,37.59
2023-05-16T10:25:43.359Z,37.13
2023-05-16T10:28:18.250Z,37.09
2023-05-16T10:30:51.177Z,37.05
2023-05-16T10:33:25.025Z,36.74
2023-05-16T10:35:58.519Z,37.27
2023-05-16T10:38:32.309Z,36.92
2023-05-16T10:41:05.612Z,36.76
2023-05-16T10:43:38.788Z,37.00
2023-05-16T10:46:12.948Z,37.33
2023-05-16T10:48:47.023Z,37.01
2023-05-16T10:51:39.437Z,37.06
2023-05-16T10:54:15.375Z,37.13
2023-05-16T10:56:52.751Z,36.41
2023-05-16T10:59:28.706Z,36.43
2023-05-16T11:02:01.816Z,36.14
2023-05-16T11:04:54.679Z,36.31
2023-05-16T11:07:33.583Z,35.78
2023-05-16T11:10:11.934Z,35.84
2023-05-16T11:12:52.566Z,35.46
2023-05-16T11:15:30.690Z,35.40
2023-05-16T11:18:14.164Z,35.74
2023-05-16T11:20:47.208Z,35.41
2023-05-16T11:23:23.772Z,34.87
2023-05-16T11:26:01.204Z,34.89
2023-05-16T11:28:35.239Z,35.17
2023-05-16T11:31:08.154Z,34.84
2023-05-16T11:33:42.378Z,35.13
2023-05-16T11:36:16.587Z,33.68
2023-05-16T11:38:49.593Z,33.57
2023-05-16T11:41:22.524Z,33.02
2023-05-16T11:43:55.357Z,33.73
2023-05-16T11:46:31.327Z,33.49
2023-05-16T11:49:04.955Z,33.85
2023-05-16T11:51:43.536Z,34.58
2023-05-16T11:54:16.722Z,34.88
2023-05-16T11:56:49.480Z,34.01
2023-05-16T11:59:22.598Z,34.05
2023-05-16T12:01:55.633Z,33.68
2023-05-16T12:04:28.871Z,34.06
2023-05-16T12:07:03.259Z,34.25
2023-05-16T12:09:36.840Z,33.55
2023-05-16T12:12:10.104Z,33.36
2023-05-16T12:14:44.016Z,33.85
2023-05-16T12:17:16.969Z,33.89
2023-05-16T12:19:49.857Z,33.95
2023-05-16T12:22:24.299Z,34.12
2023-05-16T12:24:57.187Z,33.75
2023-05-16T12:27:30.792Z,33.59
2023-05-16T12:30:03.984Z,34.52
2023-05-16T12:32:39.261Z,34.51
2023-05-16T12:35:13.731Z,34.33
2023-05-16T12:37:46.793Z,34.66
2023-05-16T12:40:21.144Z,34.92
2023-05-16T12:42:55.364Z,34.82
2023-05-16T12:45:32.288Z,34.90
2023-05-16T12:48:16.514Z,35.31
2023-05-16T12:50:50.053Z,34.85
2023-05-16T12:53:23.162Z,34.68
2023-05-16T12:55:56.327Z,34.48
2023-05-16T12:58:31.720Z,34.40
2023-05-16T13:01:06.319Z,34.65
2023-05-16T13:03:39.373Z,34.63
2023-05-16T13:06:12.462Z,34.87
2023-05-16T13:11:51.008Z,34.87
2023-05-16T13:14:24.044Z,34.79
2023-05-16T13:16:56.910Z,35.00
2023-05-16T13:19:31.991Z,35.16
2023-05-16T13:22:04.952Z,34.93
2023-05-16T13:24:37.813Z,34.94
2023-05-16T13:27:10.729Z,35.33
2023-05-16T13:29:43.587Z,35.25
2023-05-16T13:32:17.108Z,35.43
2023-05-16T13:34:50.007Z,35.10
2023-05-16T13:37:24.787Z,34.87
2023-05-16T13:39:57.917Z,34.70
2023-05-16T13:42:31.115Z,34.69
2023-05-16T13:45:05.849Z,35.01
2023-05-16T13:47:40.160Z,35.38
2023-05-16T13:50:13.531Z,35.20
2023-05-16T13:52:47.942Z,35.50
2023-05-16T13:55:20.818Z,34.80
2023-05-16T13:57:53.631Z,34.96
2023-05-16T14:00:42.782Z,34.52
2023-05-16T14:03:01.732Z,34.41
2023-05-16T14:05:35.632Z,35.00
2023-05-16T14:08:08.731Z,34.92
2023-05-16T14:10:41.963Z,34.66
2023-05-16T14:13:14.957Z,34.66
2023-05-16T14:15:47.876Z,34.91
2023-05-16T14:18:21.091Z,35.44
2023-05-16T14:20:55.707Z,36.39
2023-05-16T14:23:29.462Z,37.55
2023-05-16T14:26:02.794Z,37.77
2023-05-16T14:28:36.507Z,37.29
2023-05-16T14:31:09.504Z,37.35
2023-05-16T14:33:44.282Z,37.21
2023-05-16T14:36:17.341Z,36.61
2023-05-16T14:38:50.688Z,36.60
2023-05-16T14:41:23.687Z,36.96
2023-05-16T14:43:57.046Z,37.13
2023-05-16T14:46:29.881Z,37.17
2023-05-16T14:49:02.815Z,37.12
2023-05-16T14:51:36.001Z,37.27
2023-05-16T14:54:09.174Z,37.31
2023-05-16T14:56:42.177Z,37.24
2023-05-16T14:59:15.764Z,37.66
2023-05-16T15:01:48.759Z,37.80
2023-05-16T15:04:22.323Z,38.41
2023-05-16T15:06:55.776Z,38.06
2023-05-16T15:09:28.834Z,38.30
2023-05-16T15:12:02.326Z,38.35
2023-05-16T15:14:35.879Z,38.50
2023-05-16T15:17:09.414Z,39.05
2023-05-16T15:19:42.628Z,39.82
2023-05-16T15:22:15.721Z,39.90
2023-05-16T15:24:48.926Z,39.91
2023-05-16T15:27:23.016Z,40.07
2023-05-16T15:29:55.194Z,40.44
2023-05-16T15:32:28.085Z,40.66
2023-05-16T15:35:01.098Z,40.89
2023-05-16T15:37:34.240Z,41.13
2023-05-16T15:40:09.335Z,41.67
2023-05-16T15:42:49.686Z,42.00
2023-05-16T15:45:23.168Z,42.29
2023-05-16T15:47:57.065Z,42.87
2023-05-16T15:50:31.160Z,43.22
2023-05-16T15:53:04.308Z,43.61
2023-05-16T15:55:37.738Z,43.97
2023-05-16T15:58:10.943Z,43.96
2023-05-16T16:00:45.488Z,44.26
2023-05-16T16:03:18.430Z,44.88
2023-05-16T16:05:53.912Z,45.31
2023-05-16T16:08:27.208Z,45.89
2023-05-16T16:11:00.397Z,46.18
2023-05-16T16:13:34.174Z,46.14
2023-05-16T16:16:07.873Z,46.27
2023-05-16T16:18:41.385Z,46.59
2023-05-16T16:21:14.441Z,47.24
2023-05-16T16:23:47.352Z,47.57
2023-05-16T16:26:21.687Z,47.84
2023-05-16T16:28:54.578Z,48.37
2023-05-16T16:31:27.463Z,48.83
2023-05-16T16:34:00.410Z,48.99
2023-05-16T16:36:33.764Z,49.66
2023-05-16T16:39:07.035Z,49.97
2023-05-16T16:41:40.728Z,50.39
2023-05-16T16:44:14.515Z,50.65
2023-05-16T16:46:47.426Z,51.03
2023-05-16T16:49:20.256Z,51.32
2023-05-16T16:51:53.164Z,51.67
2023-05-16T16:54:26.311Z,51.79
2023-05-16T16:56:59.168Z,52.17
2023-05-16T16:59:32.331Z,52.23
2023-05-16T17:02:06.136Z,52.17
2023-05-16T17:04:38.936Z,52.04
2023-05-16T17:07:11.900Z,51.99
2023-05-16T17:09:44.760Z,51.92
2023-05-16T17:12:22.395Z,51.85
2023-05-16T17:14:56.674Z,52.24
2023-05-16T17:17:28.840Z,52.92
2023-05-16T17:20:03.284Z,53.22
2023-05-16T17:22:37.077Z,53.58
2023-05-16T17:25:10.568Z,54.14
2023-05-16T17:27:45.090Z,54.21
2023-05-16T17:30:18.934Z,54.26
2023-05-16T17:32:52.168Z,54.32
2023-05-16T17:35:25.087Z,54.44
2023-05-16T17:37:59.384Z,54.58
2023-05-16T17:40:31.375Z,54.98
2023-05-16T17:43:04.277Z,55.27
2023-05-16T17:45:38.574Z,55.62
2023-05-16T17:48:11.662Z,55.99
2023-05-16T17:50:44.982Z,55.98
2023-05-16T17:53:18.197Z,55.71
2023-05-16T17:55:51.153Z,55.39
2023-05-16T17:58:24.162Z,54.80
2023-05-16T18:00:57.169Z,54.51
2023-05-16T18:03:30.548Z,54.13
2023-05-16T18:06:03.568Z,53.53
2023-05-16T18:08:36.909Z,53.10
2023-05-16T18:11:10.367Z,53.23
2023-05-16T18:13:44.445Z,53.69
2023-05-16T18:16:17.689Z,53.47
2023-05-16T18:18:51.553Z,53.34
2023-05-16T18:21:24.599Z,53.17
2023-05-16T18:23:59.416Z,53.30
2023-05-16T18:26:32.801Z,53.87
2023-05-16T18:29:06.031Z,54.07
2023-05-16T18:31:42.314Z,54.04
2023-05-16T18:34:15.166Z,54.27
2023-05-16T18:36:49.053Z,54.60
2023-05-16T18:39:22.371Z,54.79
2023-05-16T18:41:55.347Z,54.76
2023-05-16T18:44:29.239Z,54.95
2023-05-16T18:47:02.305Z,55.34
2023-05-16T18:49:36.912Z,55.82
2023-05-16T18:52:10.815Z,56.67
2023-05-16T18:54:43.840Z,57.52
2023-05-16T18:57:16.975Z,57.90
2023-05-16T18:59:52.143Z,58.44
2023-05-16T19:02:37.938Z,58.80
2023-05-16T19:05:01.307Z,58.99
2023-05-16T19:07:33.865Z,59.39
2023-05-16T19:10:07.828Z,60.00
2023-05-16T19:12:41.109Z,60.11
2023-05-16T19:15:14.243Z,60.32
2023-05-16T19:17:47.585Z,60.47
2023-05-16T19:20:20.555Z,61.20
2023-05-16T19:22:53.603Z,60.68
2023-05-16T19:25:27.405Z,60.87
2023-05-16T19:28:00.208Z,60.65
2023-05-16T19:30:33.396Z,60.69
2023-05-16T19:33:06.522Z,60.93
2023-05-16T19:35:40.123Z,61.00
2023-05-16T19:38:12.956Z,61.00
2023-05-16T19:40:46.130Z,61.08
2023-05-16T19:43:19.479Z,61.49
2023-05-16T19:45:52.502Z,61.69
2023-05-16T19:48:25.963Z,61.58
2023-05-16T19:50:58.888Z,61.77
2023-05-16T19:53:31.830Z,62.08
2023-05-16T19:56:05.023Z,62.09
2023-05-16T19:58:38.065Z,61.94
2023-05-16T20:01:11.750Z,62.25
2023-05-16T20:03:44.596Z,62.20
2023-05-16T20:06:17.549Z,62.44
2023-05-16T20:08:50.334Z,62.65
2023-05-16T20:11:23.945Z,62.81
2023-05-16T20:13:58.449Z,63.18
2023-05-16T20:16:30.429Z,63.21
2023-05-16T20:19:03.125Z,63.12
2023-05-16T20:21:36.202Z,63.07
2023-05-16T20:24:09.331Z,63.00
2023-05-16T20:26:42.998Z,63.06
2023-05-16T20:29:16.072Z,63.27
2023-05-16T20:31:48.960Z,63.31
2023-05-16T20:34:21.898Z,63.46
2023-05-16T20:36:54.743Z,63.66
2023-05-16T20:39:29.185Z,63.87
2023-05-16T20:42:02.341Z,64.15
2023-05-16T20:44:35.406Z,64.27
2023-05-16T20:47:09.231Z,64.62
2023-05-16T20:49:42.390Z,64.91
2023-05-16T20:52:15.243Z,65.37
2023-05-16T20:54:48.256Z,66.08
2023-05-16T20:57:22.137Z,65.71
2023-05-16T20:59:55.022Z,66.09
2023-05-16T21:02:27.935Z,66.01
2023-05-16T21:05:14.450Z,66.10
2023-05-16T21:07:36.125Z,66.69
2023-05-16T21:10:10.308Z,67.09
2023-05-16T21:12:43.214Z,66.87
2023-05-16T21:15:16.038Z,66.87
2023-05-16T21:17:48.952Z,66.58
2023-05-16T21:20:22.281Z,66.62
2023-05-16T21:22:55.304Z,66.43
2023-05-16T21:25:28.310Z,66.48
2023-05-16T21:28:01.912Z,66.58
2023-05-16T21:30:34.975Z,66.62
2023-05-16T21:33:08.026Z,66.69
2023-05-16T21:35:41.299Z,66.76
2023-05-16T21:38:14.346Z,66.89
2023-05-16T21:40:47.215Z,66.94
2023-05-16T21:43:20.215Z,67.09
2023-05-16T21:45:53.028Z,67.20
2023-05-16T21:48:26.015Z,67.14
2023-05-16T21:50:59.024Z,67.22
2023-05-16T21:53:32.012Z,67.11
2023-05-16T21:56:05.317Z,67.36
2023-05-16T21:58:39.121Z,67.63
2023-05-16T22:01:12.362Z,68.04
2023-05-16T22:03:45.469Z,68.54
2023-05-16T22:06:20.201Z,68.87
2023-05-16T22:08:54.915Z,69.05
2023-05-16T22:11:27.790Z,69.41
2023-05-16T22:14:00.718Z,69.92
2023-05-16T22:16:33.656Z,69.95
2023-05-16T22:19:07.018Z,69.88
2023-05-16T22:21:39.987Z,69.98
2023-05-16T22:24:12.940Z,69.71
2023-05-16T22:26:45.868Z,69.67
2023-05-16T22:29:18.756Z,69.74
2023-05-16T22:31:51.635Z,69.80
2023-05-16T22:34:24.616Z,69.67
2023-05-16T22:36:57.472Z,69.61
2023-05-16T22:39:30.328Z,69.49
2023-05-16T22:42:03.897Z,69.33
2023-05-16T22:44:37.086Z,69.14
2023-05-16T22:47:10.033Z,69.18
2023-05-16T22:49:42.914Z,69.54
2023-05-16T22:52:15.939Z,69.76
2023-05-16T22:54:49.298Z,69.83
2023-05-16T22:57:22.254Z,70.03
2023-05-16T22:59:56.237Z,70.28
2023-05-16T23:02:29.521Z,70.41
2023-05-16T23:05:02.669Z,70.46
2023-05-16T23:07:36.290Z,70.71
2023-05-16T23:10:10.655Z,70.86
2023-05-16T23:12:43.886Z,70.87
2023-05-16T23:15:16.856Z,70.70
2023-05-16T23:17:50.073Z,70.62
2023-05-16T23:20:23.374Z,70.72
2023-05-16T23:22:56.154Z,70.96
2023-05-16T23:25:29.657Z,70.87
2023-05-16T23:28:02.669Z,70.86
2023-05-16T23:30:36.391Z,70.86
2023-05-16T23:33:09.124Z,70.84
2023-05-16T23:35:42.022Z,70.83
2023-05-16T23:38:14.831Z,71.05
2023-05-16T23:40:47.710Z,71.12
2023-05-16T23:43:21.375Z,71.42
2023-05-16T23:45:54.513Z,71.85
2023-05-16T23:48:27.432Z,72.37
2023-05-16T23:51:02.803Z,72.70
2023-05-16T23:53:38.608Z,72.89
2023-05-16T23:56:11.981Z,73.27
2023-05-16T23:58:44.744Z,73.62
